Time;durP1;ratioP1;P1;durP2;ratioP2;P2;SDS_P1;SDS_P2;PMS_P1;PMS_P2;Temp;Humidity;BMP_temperature;BMP_pressure;BME280_temperature;BME280_humidity;BME280_pressure;Samples;Min_cycle;Max_cycle;Signal;HPM_P1;HPM_P2
2023/06/15 00:00:42;;;;;;;5.85;2.20;;;;;;;13.55;49.92;102066.53;4962426;28;20042;-70
2023/06/15 00:03:07;;;;;;;4.03;2.45;;;;;;;13.53;50.18;102066.56;4965504;28;20045;-72
2023/06/15 00:05:33;;;;;;;4.95;2.75;;;;;;;13.58;49.91;102065.59;4960622;28;20042;-72
2023/06/15 00:07:58;;;;;;;2.90;2.25;;;;;;;13.52;49.88;102062.25;4966715;28;20039;-70
2023/06/15 00:10:24;;;;;;;4.93;2.50;;;;;;;13.49;49.84;102074.63;4962380;28;20057;-69
2023/06/15 00:12:50;;;;;;;4.50;2.70;;;;;;;13.42;49.94;102066.09;4963888;28;20051;-69
2023/06/15 00:15:15;;;;;;;4.13;2.20;;;;;;;13.36;49.92;102065.41;4962822;28;20035;-71
2023/06/15 00:17:42;;;;;;;6.85;2.78;;;;;;;13.21;50.34;102078.16;4963877;28;20423;-70
2023/06/15 00:20:08;;;;;;;3.83;2.03;;;;;;;13.20;50.47;102070.31;4965513;28;20040;-69
2023/06/15 00:22:41;;;;;;;4.55;2.72;;;;;;;13.18;50.52;102061.63;4960155;28;20408;-70
2023/06/15 00:25:10;;;;;;;4.07;2.65;;;;;;;13.21;50.54;102067.66;4964066;28;20026;-69
2023/06/15 00:27:35;;;;;;;5.10;2.75;;;;;;;13.15;50.49;102059.97;4954229;28;20190;-71
2023/06/15 00:30:03;;;;;;;3.97;2.17;;;;;;;13.08;50.64;102055.81;4965217;28;20508;-69
2023/06/15 00:32:28;;;;;;;7.15;2.72;;;;;;;13.03;50.42;102052.50;4963455;28;20057;-72
2023/06/15 00:34:55;;;;;;;5.13;2.60;;;;;;;13.04;50.46;102052.44;4963747;28;20038;-76
2023/06/15 00:37:20;;;;;;;5.63;2.60;;;;;;;13.02;50.54;102051.63;4971701;28;20038;-71
2023/06/15 00:39:46;;;;;;;9.25;3.38;;;;;;;12.99;50.71;102050.88;4946886;28;20038;-71
2023/06/15 00:42:12;;;;;;;3.75;2.80;;;;;;;12.94;50.72;102058.91;4955591;28;20364;-66
2023/06/15 00:44:40;;;;;;;4.53;3.05;;;;;;;12.91;50.41;102061.59;4961877;28;20026;-66
2023/06/15 00:47:06;;;;;;;3.75;2.40;;;;;;;12.84;50.71;102057.44;4968606;28;20120;-68
2023/06/15 00:49:33;;;;;;;6.90;2.15;;;;;;;12.84;50.70;102057.44;4965450;28;20092;-71
2023/06/15 00:52:00;;;;;;;5.68;3.22;;;;;;;12.79;50.60;102056.75;4961285;28;20049;-70
2023/06/15 00:54:27;;;;;;;4.60;2.85;;;;;;;12.73;50.74;102049.03;4964827;28;20043;-72
2023/06/15 00:56:53;;;;;;;4.35;2.95;;;;;;;12.75;50.69;102052.47;4962857;28;21475;-72
2023/06/15 00:59:20;;;;;;;5.88;2.58;;;;;;;12.71;50.48;102059.56;4966608;28;20034;-72
2023/06/15 01:01:54;;;;;;;4.45;2.67;;;;;;;12.72;50.59;102055.22;4953040;28;20065;-72
2023/06/15 01:04:25;;;;;;;4.93;2.58;;;;;;;12.59;50.73;102058.16;4969945;28;20574;-71
2023/06/15 01:06:56;;;;;;;4.22;2.92;;;;;;;12.61;50.50;102053.72;4963733;28;20125;-72
2023/06/15 01:09:26;;;;;;;5.43;3.17;;;;;;;12.60;51.02;102052.03;4981860;28;20121;-70
2023/06/15 01:11:57;;;;;;;8.70;4.00;;;;;;;12.60;50.68;102052.03;4958969;28;20062;-71
2023/06/15 01:14:29;;;;;;;4.50;2.95;;;;;;;12.68;50.64;102052.63;4971426;28;20097;-70
2023/06/15 01:17:02;;;;;;;3.92;3.20;;;;;;;12.68;50.86;102057.88;4943941;28;20046;-70
2023/06/15 01:19:53;;;;;;;6.30;2.85;;;;;;;12.60;50.90;102059.88;4955374;28;20039;-73
2023/06/15 01:22:29;;;;;;;5.40;3.53;;;;;;;12.57;51.11;102059.97;4978720;28;20038;-69
2023/06/15 01:25:33;;;;;;;7.57;3.38;;;;;;;12.50;51.36;102059.28;4960880;28;20285;-68
2023/06/15 01:28:02;;;;;;;4.05;3.03;;;;;;;12.47;51.36;102059.38;4962570;28;20507;-72
2023/06/15 01:30:32;;;;;;;5.80;3.58;;;;;;;12.44;51.30;102064.69;4952641;28;20037;-71
2023/06/15 01:32:58;;;;;;;7.07;2.90;;;;;;;12.47;51.05;102066.41;4972337;28;20458;-68
2023/06/15 01:35:23;;;;;;;6.63;3.53;;;;;;;12.39;50.89;102055.25;4960512;28;20547;-71
2023/06/15 01:37:49;;;;;;;5.38;3.67;;;;;;;12.43;50.90;102062.13;4962132;28;20378;-70
2023/06/15 01:40:18;;;;;;;4.97;3.47;;;;;;;12.38;50.72;102061.38;4963326;28;20126;-72
2023/06/15 01:42:44;;;;;;;6.68;3.53;;;;;;;12.28;51.01;102059.03;4952238;28;20425;-69
2023/06/15 01:45:11;;;;;;;6.45;3.33;;;;;;;12.26;51.05;102060.84;4962001;28;20034;-70
2023/06/15 01:47:39;;;;;;;6.85;4.10;;;;;;;12.25;51.18;102053.03;4960860;28;20039;-68
2023/06/15 01:50:07;;;;;;;7.13;4.60;;;;;;;12.14;51.25;102061.19;4976178;28;20263;-71
2023/06/15 01:52:32;;;;;;;6.30;4.63;;;;;;;12.10;51.34;102062.19;4976372;28;20046;-69
2023/06/15 01:54:59;;;;;;;6.20;3.75;;;;;;;12.08;51.25;102063.97;4951116;28;20245;-65
2023/06/15 01:57:24;;;;;;;8.88;4.03;;;;;;;11.97;51.48;102059.03;4959635;28;20046;-66
2023/06/15 01:59:54;;;;;;;5.35;4.03;;;;;;;12.09;51.30;102063.09;4958419;28;20948;-64
2023/06/15 02:02:22;;;;;;;8.82;3.88;;;;;;;12.07;51.62;102054.41;4967194;28;20044;-66
2023/06/15 02:04:49;;;;;;;5.88;4.03;;;;;;;12.07;51.48;102057.03;4959045;28;20073;-66
2023/06/15 02:07:14;;;;;;;10.40;5.20;;;;;;;11.97;51.64;102058.19;4960992;28;20042;-69
2023/06/15 02:09:40;;;;;;;7.18;5.00;;;;;;;11.97;51.75;102055.56;4960885;28;20036;-73
2023/06/15 02:12:07;;;;;;;7.32;5.75;;;;;;;12.05;51.73;102053.59;4948840;28;20641;-70
2023/06/15 02:14:33;;;;;;;7.85;5.15;;;;;;;12.10;51.23;102048.22;4959508;28;20740;-71
2023/06/15 02:17:02;;;;;;;7.78;5.45;;;;;;;12.08;51.71;102043.00;4963311;28;20043;-72
2023/06/15 02:19:28;;;;;;;6.30;5.68;;;;;;;12.06;51.96;102044.81;4953407;28;20114;-70
2023/06/15 02:21:54;;;;;;;8.00;5.43;;;;;;;12.01;51.86;102052.81;4943450;28;20038;-72
2023/06/15 02:24:19;;;;;;;8.38;6.55;;;;;;;11.98;52.27;102049.44;4943237;28;20125;-73
2023/06/15 02:26:46;;;;;;;6.97;6.28;;;;;;;11.98;52.02;102049.44;4944269;28;20128;-70
2023/06/15 02:29:12;;;;;;;11.55;6.90;;;;;;;12.03;51.97;102047.53;4963958;28;20039;-70
2023/06/15 02:31:38;;;;;;;11.23;7.25;;;;;;;11.97;52.17;102058.19;4956690;28;20041;-73
2023/06/15 02:34:04;;;;;;;9.18;6.00;;;;;;;11.96;52.03;102056.47;4964333;28;20034;-73
2023/06/15 02:36:30;;;;;;;13.45;8.07;;;;;;;11.93;52.56;102053.91;4973794;28;20043;-66
2023/06/15 02:38:57;;;;;;;9.75;7.18;;;;;;;11.91;52.14;102053.97;4962471;28;20030;-66
2023/06/15 02:41:22;;;;;;;9.60;7.30;;;;;;;11.95;52.36;102054.72;4960606;28;20137;-71
2023/06/15 02:43:48;;;;;;;8.85;6.55;;;;;;;11.91;52.32;102058.34;4959649;28;20026;-69
2023/06/15 02:46:14;;;;;;;9.20;6.72;;;;;;;11.89;52.63;102061.00;4961556;28;20582;-75
2023/06/15 02:48:40;;;;;;;14.10;9.20;;;;;;;11.91;52.49;102059.22;4946585;28;20041;-75
2023/06/15 02:51:07;;;;;;;12.55;8.10;;;;;;;11.91;52.77;102063.56;4960470;28;20723;-73
2023/06/15 02:53:33;;;;;;;11.60;8.70;;;;;;;11.92;52.68;102063.53;4960118;28;20491;-67
2023/06/15 02:56:02;;;;;;;9.95;8.52;;;;;;;11.94;52.57;102059.13;4961357;28;20884;-76
2023/06/15 02:58:32;;;;;;;10.38;8.10;;;;;;;11.98;52.83;102059.91;4963513;28;20042;-67
2023/06/15 03:01:16;;;;;;;14.77;8.43;;;;;;;11.97;53.03;102066.03;4945861;28;20475;-70
2023/06/15 03:03:50;;;;;;;11.65;8.63;;;;;;;11.98;52.99;102059.91;4943295;28;20097;-68
2023/06/15 03:06:16;;;;;;;13.55;10.77;;;;;;;12.04;53.01;102057.09;4963098;28;20130;-68
2023/06/15 03:08:42;;;;;;;10.68;8.73;;;;;;;12.00;53.10;102058.09;4952793;28;20037;-71
2023/06/15 03:11:15;;;;;;;12.05;9.48;;;;;;;12.00;53.15;102058.09;4945336;28;20530;-69
2023/06/15 03:13:41;;;;;;;12.52;9.00;;;;;;;11.97;52.85;102059.03;4962286;28;20038;-66
2023/06/15 03:16:08;;;;;;;11.05;9.55;;;;;;;11.98;53.00;102065.16;4961905;28;20046;-65
2023/06/15 03:18:33;;;;;;;13.90;9.73;;;;;;;12.03;52.63;102063.25;4936575;28;20499;-70
2023/06/15 03:20:59;;;;;;;15.75;10.63;;;;;;;11.95;53.02;102075.69;4942922;28;20043;-71
2023/06/15 03:23:25;;;;;;;46.47;12.57;;;;;;;12.03;52.82;102065.88;4963985;28;20071;-70
2023/06/15 03:25:52;;;;;;;14.95;11.43;;;;;;;12.16;52.81;102069.03;4958908;28;20532;-73
2023/06/15 03:28:23;;;;;;;15.35;11.57;;;;;;;12.05;53.72;102067.56;4960044;28;20041;-71
2023/06/15 03:30:52;;;;;;;14.77;10.35;;;;;;;12.22;53.25;102069.72;4956683;28;20038;-70
2023/06/15 03:33:22;;;;;;;14.50;10.98;;;;;;;12.25;53.35;102074.88;4944294;28;20030;-71
2023/06/15 03:35:49;;;;;;;13.82;10.68;;;;;;;12.21;53.37;102073.22;4956108;28;20038;-70
2023/06/15 03:38:16;;;;;;;12.70;10.10;;;;;;;12.23;53.38;102073.19;4953640;28;20038;-71
2023/06/15 03:40:45;;;;;;;12.80;9.43;;;;;;;12.14;53.49;102069.06;4953349;28;20038;-67
2023/06/15 03:43:11;;;;;;;15.50;10.63;;;;;;;12.18;53.38;102064.56;4947190;28;20035;-66
2023/06/15 03:45:39;;;;;;;11.98;8.40;;;;;;;12.34;52.92;102072.91;4954003;28;20125;-70
2023/06/15 03:48:06;;;;;;;13.35;9.95;;;;;;;12.40;53.01;102072.69;4966833;28;20121;-66
2023/06/15 03:50:32;;;;;;;12.95;9.07;;;;;;;12.40;52.83;102078.81;4962349;28;20110;-66
2023/06/15 03:52:58;;;;;;;11.68;8.63;;;;;;;12.36;52.76;102076.34;4973142;28;20030;-74
2023/06/15 03:55:25;;;;;;;10.70;8.80;;;;;;;12.42;52.86;102076.13;4965057;28;20042;-75
2023/06/15 03:57:51;;;;;;;11.20;9.27;;;;;;;12.45;52.58;102073.44;4962045;28;20201;-71
2023/06/15 04:00:18;;;;;;;15.25;8.93;;;;;;;12.45;52.60;102076.06;4962724;28;20039;-75
2023/06/15 04:02:48;;;;;;;8.95;7.72;;;;;;;12.49;52.72;102077.66;4961964;28;20117;-74
2023/06/15 04:05:14;;;;;;;11.80;8.05;;;;;;;12.56;52.47;102074.00;4965851;28;20037;-67
2023/06/15 04:07:40;;;;;;;10.43;8.88;;;;;;;12.57;52.80;102080.94;4963753;28;20069;-71
2023/06/15 04:10:08;;;;;;;10.40;9.00;;;;;;;12.78;52.38;102078.63;4962089;28;20081;-72
2023/06/15 04:12:33;;;;;;;11.38;7.28;;;;;;;12.87;52.06;102083.56;4945915;28;20440;-71
2023/06/15 04:14:59;;;;;;;9.40;6.72;;;;;;;12.90;51.77;102080.88;4950344;28;20045;-71
2023/06/15 04:17:27;;;;;;;10.18;6.45;;;;;;;13.03;51.72;102082.22;4965096;28;20049;-73
2023/06/15 04:19:54;;;;;;;11.85;7.03;;;;;;;13.10;51.89;102086.38;4945117;28;20034;-72
2023/06/15 04:22:20;;;;;;;6.65;4.90;;;;;;;13.26;51.03;102078.00;4963749;28;20664;-75
2023/06/15 04:24:47;;;;;;;6.57;4.90;;;;;;;13.44;50.88;102077.41;4944560;28;20113;-75
2023/06/15 04:27:13;;;;;;;3.97;3.60;;;;;;;13.61;49.64;102074.25;4964366;28;20042;-76
2023/06/15 04:29:45;;;;;;;5.82;3.92;;;;;;;13.82;49.66;102072.66;4942494;28;20054;-75
2023/06/15 04:32:11;;;;;;;3.83;3.05;;;;;;;13.97;48.72;102075.66;4964739;28;20066;-76
2023/06/15 04:34:37;;;;;;;5.20;3.25;;;;;;;14.20;48.57;102074.84;4962141;28;20102;-73
2023/06/15 04:37:06;;;;;;;3.65;3.20;;;;;;;14.41;47.35;102079.34;4956580;28;20042;-74
2023/06/15 04:39:34;;;;;;;3.58;2.75;;;;;;;14.62;47.22;102082.09;4960208;28;20077;-73
2023/06/15 04:42:04;;;;;;;5.22;2.92;;;;;;;14.77;47.05;102078.88;4946744;28;20074;-75
2023/06/15 04:44:30;;;;;;;4.85;3.10;;;;;;;14.90;46.46;102081.84;4955529;28;20027;-73
2023/06/15 04:46:56;;;;;;;4.07;2.72;;;;;;;14.95;44.59;102082.56;4945976;28;20089;-74
2023/06/15 04:49:22;;;;;;;3.63;2.35;;;;;;;15.09;44.53;102080.22;4948547;28;20400;-74
2023/06/15 04:51:50;;;;;;;4.38;2.13;;;;;;;15.27;45.05;102075.16;4959128;28;20073;-74
2023/06/15 04:54:17;;;;;;;4.53;3.25;;;;;;;15.28;44.04;102082.13;4980101;28;20133;-74
2023/06/15 04:56:43;;;;;;;2.63;2.20;;;;;;;15.53;43.81;102079.38;4963859;28;20046;-73
2023/06/15 04:59:08;;;;;;;4.93;1.73;;;;;;;15.64;42.51;102078.88;4954791;28;20125;-73
2023/06/15 05:01:34;;;;;;;4.18;2.03;;;;;;;15.80;41.39;102075.53;4960387;28;20100;-70
2023/06/15 05:04:00;;;;;;;5.68;2.13;;;;;;;16.11;39.39;102081.31;4961384;28;20038;-71
2023/06/15 05:06:26;;;;;;;4.20;2.17;;;;;;;16.98;37.94;102081.72;4953481;28;20061;-71
2023/06/15 05:08:52;;;;;;;4.40;1.70;;;;;;;18.57;33.64;102074.47;4941245;28;20041;-70
2023/06/15 05:11:18;;;;;;;4.82;1.40;;;;;;;20.31;29.74;102073.16;4960660;28;21376;-68
2023/06/15 05:13:44;;;;;;;2.60;1.65;;;;;;;21.60;27.85;102078.09;4961086;28;20686;-67
2023/06/15 05:16:10;;;;;;;2.88;1.63;;;;;;;22.54;26.05;102075.03;4961220;28;20046;-69
2023/06/15 05:18:38;;;;;;;2.47;1.23;;;;;;;23.42;24.66;102069.44;4959203;28;20122;-68
2023/06/15 05:21:05;;;;;;;4.80;1.55;;;;;;;23.82;24.67;102068.19;4961483;28;20371;-71
2023/06/15 05:23:35;;;;;;;2.15;1.30;;;;;;;24.90;22.78;102078.31;4960798;28;20197;-72
2023/06/15 05:26:01;;;;;;;4.63;1.17;;;;;;;25.15;22.53;102077.13;4961722;28;20672;-71
2023/06/15 05:28:27;;;;;;;3.10;1.75;;;;;;;24.75;21.86;102078.59;4968574;28;20071;-73
2023/06/15 05:30:52;;;;;;;7.78;1.70;;;;;;;24.52;22.49;102071.59;4960439;28;22579;-69
2023/06/15 05:33:19;;;;;;;3.83;1.40;;;;;;;24.71;22.04;102070.97;4942708;28;20161;-71
2023/06/15 05:35:45;;;;;;;4.68;1.65;;;;;;;24.80;21.72;102064.84;4962095;28;20061;-73
2023/06/15 05:38:11;;;;;;;3.05;1.40;;;;;;;24.75;22.31;102073.25;4947092;28;20069;-71
2023/06/15 05:40:41;;;;;;;5.82;1.38;;;;;;;25.39;21.36;102067.03;4961411;28;20045;-72
2023/06/15 05:43:06;;;;;;;3.72;1.63;;;;;;;25.24;21.41;102068.31;4962075;28;20097;-71
2023/06/15 05:45:32;;;;;;;4.45;1.65;;;;;;;25.62;20.81;102070.47;4943385;28;20490;-72
2023/06/15 05:48:03;;;;;;;5.60;1.50;;;;;;;25.85;20.99;102071.13;4964340;28;20095;-73
2023/06/15 05:50:31;;;;;;;4.13;1.38;;;;;;;26.15;21.32;102071.28;4944766;28;20038;-72
2023/06/15 05:52:56;;;;;;;6.00;1.23;;;;;;;26.50;20.75;102068.16;4947735;28;20372;-69
2023/06/15 05:55:23;;;;;;;1.77;1.08;;;;;;;25.74;21.14;102059.69;4960363;28;20045;-69
2023/06/15 05:57:58;;;;;;;2.88;1.20;;;;;;;25.70;21.09;102075.16;4974422;28;20026;-74
2023/06/15 06:00:25;;;;;;;2.20;1.55;;;;;;;25.50;20.92;102068.78;4940355;28;20042;-73
2023/06/15 06:02:57;;;;;;;8.05;1.52;;;;;;;26.03;21.30;102071.34;4968028;28;20038;-75
2023/06/15 06:05:30;;;;;;;2.28;1.33;;;;;;;26.57;20.35;102068.44;4961508;28;20247;-72
2023/06/15 06:07:56;;;;;;;4.28;1.23;;;;;;;26.82;19.77;102065.25;4955174;28;20652;-76
2023/06/15 06:10:22;;;;;;;4.35;1.80;;;;;;;26.57;19.61;102066.59;4961146;28;20092;-76
2023/06/15 06:12:55;;;;;;;4.60;1.45;;;;;;;26.05;20.13;102060.50;4949392;28;20034;-76
2023/06/15 06:15:21;;;;;;;5.88;1.05;;;;;;;26.39;20.12;102057.53;4960796;28;20145;-76
2023/06/15 06:17:47;;;;;;;6.13;1.08;;;;;;;27.01;19.83;102067.09;4971507;28;20478;-76
2023/06/15 06:20:13;;;;;;;2.42;1.10;;;;;;;27.42;19.25;102054.34;4944540;28;20041;-77
2023/06/15 06:22:38;;;;;;;2.72;0.85;;;;;;;28.04;18.68;102056.59;4958457;28;20026;-70
2023/06/15 06:25:05;;;;;;;2.25;1.20;;;;;;;28.18;18.41;102058.78;4962382;28;20045;-75
2023/06/15 06:27:31;;;;;;;2.70;1.60;;;;;;;27.67;19.46;102055.56;4946601;28;20411;-75
2023/06/15 06:29:59;;;;;;;4.43;1.90;;;;;;;27.83;19.12;102057.66;4961397;28;20037;-76
2023/06/15 06:32:25;;;;;;;5.45;1.30;;;;;;;28.36;17.73;102058.00;4941047;28;20096;-75
2023/06/15 06:34:51;;;;;;;3.78;1.30;;;;;;;28.44;18.72;102056.22;4978356;28;20050;-74
2023/06/15 06:37:16;;;;;;;3.92;1.52;;;;;;;28.70;18.25;102055.50;4960862;28;20046;-74
2023/06/15 06:39:42;;;;;;;5.32;1.00;;;;;;;29.96;16.88;102056.94;4963406;28;20225;-74
2023/06/15 06:42:07;;;;;;;3.03;0.98;;;;;;;29.11;17.49;102056.75;4961061;28;20042;-73
2023/06/15 06:44:36;;;;;;;3.92;0.88;;;;;;;29.25;16.99;102054.50;4951040;28;20254;-75
2023/06/15 06:47:03;;;;;;;4.40;0.82;;;;;;;29.55;17.66;102054.03;4963010;28;20042;-73
2023/06/15 06:49:29;;;;;;;4.22;1.00;;;;;;;30.15;16.19;102057.72;4962609;28;20049;-73
2023/06/15 06:51:55;;;;;;;1.85;1.00;;;;;;;29.23;16.33;102057.34;4959673;28;20184;-75
2023/06/15 06:54:20;;;;;;;2.92;1.20;;;;;;;28.81;16.51;102052.56;4960433;28;20132;-75
2023/06/15 06:56:46;;;;;;;6.97;1.20;;;;;;;29.28;16.27;102049.66;4962771;28;20153;-73
2023/06/15 06:59:12;;;;;;;3.35;0.98;;;;;;;29.57;15.95;102051.16;4957282;28;20046;-73
2023/06/15 07:01:37;;;;;;;3.80;1.00;;;;;;;29.74;16.03;102052.97;4952298;28;20038;-73
2023/06/15 07:04:03;;;;;;;3.47;0.90;;;;;;;30.53;15.05;102048.22;4961942;28;20366;-73
2023/06/15 07:06:29;;;;;;;2.75;1.00;;;;;;;30.54;15.04;102049.06;4959488;28;20045;-73
2023/06/15 07:08:54;;;;;;;2.40;1.20;;;;;;;29.84;15.83;102049.31;4963129;28;20755;-73
2023/06/15 07:11:22;;;;;;;2.92;0.75;;;;;;;30.44;15.40;102056.44;4958265;28;20035;-73
2023/06/15 07:13:48;;;;;;;3.00;0.98;;;;;;;30.42;15.16;102053.91;4963940;28;20809;-73
2023/06/15 07:16:13;;;;;;;2.65;1.15;;;;;;;30.31;14.99;102052.38;4962794;28;20105;-73
2023/06/15 07:18:39;;;;;;;6.53;2.60;;;;;;;30.43;15.75;102049.38;4965772;28;20042;-74
2023/06/15 07:21:04;;;;;;;4.32;1.40;;;;;;;30.61;14.90;102047.41;4948325;28;20849;-73
2023/06/15 07:23:30;;;;;;;7.22;1.15;;;;;;;30.59;15.20;102054.81;4962540;28;20144;-74
2023/06/15 07:25:55;;;;;;;4.25;0.68;;;;;;;31.46;14.15;102047.03;4964392;28;20216;-73
2023/06/15 07:28:21;;;;;;;5.43;0.95;;;;;;;31.83;15.11;102051.03;4961549;28;20030;-73
2023/06/15 07:30:49;;;;;;;10.85;1.20;;;;;;;31.58;14.90;102045.72;4963215;28;20479;-73
2023/06/15 07:33:19;;;;;;;3.63;1.20;;;;;;;32.97;13.42;102051.41;4965809;28;20280;-73
2023/06/15 07:35:45;;;;;;;3.97;0.97;;;;;;;31.84;14.21;102052.69;4964526;28;20046;-73
2023/06/15 07:38:13;;;;;;;6.63;1.20;;;;;;;32.18;13.70;102052.38;4967151;28;21117;-74
2023/06/15 07:40:38;;;;;;;5.18;1.08;;;;;;;33.53;12.62;102046.44;4963921;28;20038;-73
2023/06/15 07:43:04;;;;;;;6.80;1.00;;;;;;;33.35;12.48;102051.41;4967972;28;20041;-73
2023/06/15 07:45:29;;;;;;;2.15;1.05;;;;;;;32.87;12.91;102051.63;4963882;28;20129;-74
2023/06/15 07:47:57;;;;;;;6.95;1.30;;;;;;;32.06;13.62;102053.81;4966365;28;20026;-72
2023/06/15 07:50:22;;;;;;;4.03;1.42;;;;;;;31.87;13.12;102049.63;4959763;28;20046;-73
2023/06/15 07:52:51;;;;;;;3.75;1.38;;;;;;;32.62;12.97;102048.25;4962996;28;20299;-73
2023/06/15 07:55:16;;;;;;;1.65;0.75;;;;;;;33.73;13.57;102052.16;4964519;28;20045;-74
2023/06/15 07:57:42;;;;;;;2.17;0.80;;;;;;;33.36;13.21;102048.47;4967083;28;20030;-73
2023/06/15 08:00:08;;;;;;;7.15;2.30;;;;;;;33.38;11.99;102048.31;4967425;28;20045;-75
2023/06/15 08:02:34;;;;;;;7.65;1.15;;;;;;;34.14;12.05;102042.69;4962694;28;20034;-73
2023/06/15 08:05:00;;;;;;;4.97;0.88;;;;;;;33.74;12.43;102050.28;4968810;28;20089;-74
2023/06/15 08:07:25;;;;;;;5.43;1.00;;;;;;;34.84;12.01;102057.38;4980340;28;20087;-74
2023/06/15 08:09:51;;;;;;;5.30;1.27;;;;;;;33.57;11.60;102061.31;4965799;28;20030;-73
2023/06/15 08:12:17;;;;;;;2.38;0.85;;;;;;;33.31;12.60;102058.22;4969100;28;20034;-74
2023/06/15 08:14:45;;;;;;;3.08;1.25;;;;;;;33.74;12.43;102053.84;4966002;28;20043;-74
2023/06/15 08:17:13;;;;;;;2.10;0.93;;;;;;;33.87;12.49;102053.16;4957172;28;20428;-73
2023/06/15 08:19:39;;;;;;;3.72;0.95;;;;;;;34.27;11.91;102054.50;4952647;28;20363;-73
2023/06/15 08:22:06;;;;;;;2.65;1.13;;;;;;;33.61;11.58;102049.03;4966397;28;20042;-73
2023/06/15 08:24:32;;;;;;;7.43;1.30;;;;;;;33.56;13.10;102051.47;4961435;28;20082;-73
2023/06/15 08:26:59;;;;;;;4.18;0.90;;;;;;;33.72;11.79;102038.78;4962920;28;20132;-74
2023/06/15 08:29:24;;;;;;;2.90;1.17;;;;;;;33.12;12.00;102048.69;4961746;28;20046;-74
2023/06/15 08:31:52;;;;;;;2.45;1.27;;;;;;;33.38;11.55;102040.19;4953469;28;20357;-73
2023/06/15 08:34:18;;;;;;;2.67;1.08;;;;;;;34.66;11.29;102046.97;4960636;28;20041;-73
2023/06/15 08:36:43;;;;;;;7.50;1.42;;;;;;;33.77;10.61;102036.34;4962109;28;20322;-74
2023/06/15 08:39:09;;;;;;;3.63;1.10;;;;;;;33.02;11.84;102043.56;4968250;28;20488;-74
2023/06/15 08:41:37;;;;;;;2.03;1.02;;;;;;;33.33;11.87;102037.19;4942181;28;20069;-73
2023/06/15 08:44:05;;;;;;;4.70;1.05;;;;;;;32.70;12.36;102045.50;4971872;28;20138;-74
2023/06/15 08:46:31;;;;;;;1.17;0.85;;;;;;;32.66;11.90;102046.88;4962210;28;20126;-74
2023/06/15 08:48:57;;;;;;;3.75;1.02;;;;;;;33.81;10.91;102048.50;4947307;28;20038;-73
2023/06/15 08:51:23;;;;;;;6.25;1.70;;;;;;;32.61;12.14;102049.25;4964540;28;20105;-76
2023/06/15 08:53:48;;;;;;;3.20;0.88;;;;;;;32.57;12.33;102042.56;4963644;28;20035;-74
2023/06/15 08:56:14;;;;;;;2.80;1.10;;;;;;;32.82;13.12;102048.59;4963533;28;20048;-74
2023/06/15 08:58:41;;;;;;;3.28;1.77;;;;;;;32.34;12.53;102048.75;4954193;28;20045;-74
2023/06/15 09:01:08;;;;;;;4.18;1.70;;;;;;;33.26;12.96;102047.91;4963665;28;20034;-73
2023/06/15 09:03:34;;;;;;;5.32;1.10;;;;;;;33.46;11.76;102045.50;4956962;28;20034;-74
2023/06/15 09:06:00;;;;;;;3.00;0.98;;;;;;;32.87;12.96;102050.78;4964913;28;20050;-73
2023/06/15 09:08:28;;;;;;;1.75;1.25;;;;;;;32.53;12.90;102050.19;4963384;28;20117;-73
2023/06/15 09:11:07;;;;;;;2.53;0.88;;;;;;;33.25;12.77;102049.75;4959787;28;20050;-73
2023/06/15 09:13:33;;;;;;;6.32;1.30;;;;;;;33.16;12.50;102045.44;4963296;28;20050;-74
2023/06/15 09:16:02;;;;;;;4.68;1.48;;;;;;;33.60;12.01;102046.53;4961510;28;20221;-74
2023/06/15 09:18:28;;;;;;;1.90;1.20;;;;;;;32.67;12.70;102050.41;4963137;28;20065;-74
2023/06/15 09:21:00;;;;;;;2.45;1.17;;;;;;;31.70;13.67;102048.88;4945237;28;20124;-74
2023/06/15 09:23:25;;;;;;;3.60;1.25;;;;;;;31.57;13.72;102041.31;4962624;28;20096;-73
2023/06/15 09:25:52;;;;;;;4.65;1.48;;;;;;;31.20;15.98;102044.56;4963640;28;20042;-76
2023/06/15 09:28:24;;;;;;;3.70;1.15;;;;;;;31.26;15.58;102046.59;4964594;28;20043;-73
2023/06/15 09:30:57;;;;;;;4.07;1.00;;;;;;;31.12;16.17;102040.03;4960846;28;20496;-73
2023/06/15 09:33:22;;;;;;;6.75;1.13;;;;;;;30.41;16.05;102041.44;4958906;28;20455;-74
2023/06/15 09:36:02;;;;;;;4.95;1.30;;;;;;;30.21;16.21;102046.28;4953962;28;20095;-73
2023/06/15 09:38:40;;;;;;;3.70;1.13;;;;;;;30.05;17.46;102038.13;4961811;28;20531;-73
2023/06/15 09:41:06;;;;;;;3.08;1.20;;;;;;;29.85;17.73;102037.53;4963794;28;20044;-74
2023/06/15 09:43:38;;;;;;;4.00;1.30;;;;;;;29.27;17.67;102042.56;4960678;28;20108;-73
2023/06/15 09:46:15;;;;;;;4.50;1.45;;;;;;;28.86;18.21;102038.66;4961608;28;20055;-72
2023/06/15 09:48:43;;;;;;;3.40;1.05;;;;;;;28.59;19.18;102048.50;4961901;28;20034;-73
2023/06/15 09:51:10;;;;;;;4.20;1.20;;;;;;;28.23;19.01;102042.22;4961422;28;20042;-74
2023/06/15 09:53:37;;;;;;;2.25;1.33;;;;;;;28.44;18.45;102044.66;4960671;28;20040;-72
2023/06/15 09:56:02;;;;;;;3.38;0.95;;;;;;;27.92;19.49;102032.59;4960822;28;20297;-73
2023/06/15 09:58:29;;;;;;;7.50;1.13;;;;;;;27.82;18.72;102034.47;4963908;28;20030;-73
2023/06/15 10:00:58;;;;;;;3.83;1.20;;;;;;;28.08;18.58;102039.16;4963102;28;20137;-73
2023/06/15 10:03:25;;;;;;;9.02;2.63;;;;;;;28.06;18.68;102035.78;4960078;28;20145;-71
2023/06/15 10:05:58;;;;;;;9.00;2.85;;;;;;;28.48;18.66;102035.28;4960107;28;20041;-73
2023/06/15 10:08:26;;;;;;;3.90;1.38;;;;;;;27.63;18.79;102048.84;4962252;28;20652;-73
2023/06/15 10:10:54;;;;;;;2.05;0.85;;;;;;;27.66;19.15;102043.16;4963784;28;20042;-72
2023/06/15 10:13:28;;;;;;;5.43;1.92;;;;;;;27.58;18.23;102043.00;4961199;28;20030;-72
2023/06/15 10:15:57;;;;;;;4.03;1.50;;;;;;;27.38;19.05;102042.19;4961557;28;20212;-72
2023/06/15 10:18:25;;;;;;;4.45;1.27;;;;;;;27.32;19.14;102040.13;4954014;28;20137;-73
2023/06/15 10:20:54;;;;;;;4.93;1.50;;;;;;;27.33;19.15;102038.28;4960680;28;20042;-73
2023/06/15 10:23:27;;;;;;;1.73;1.25;;;;;;;27.42;19.32;102042.78;4972113;28;20042;-73
2023/06/15 10:25:58;;;;;;;2.88;1.13;;;;;;;28.07;19.40;102048.22;4971309;28;20034;-72
2023/06/15 10:28:32;;;;;;;3.67;1.35;;;;;;;28.24;18.33;102039.38;4965198;28;20119;-73
2023/06/15 10:31:10;;;;;;;4.15;1.73;;;;;;;28.48;18.07;102046.88;4966257;28;20043;-72
2023/06/15 10:33:53;;;;;;;2.25;1.17;;;;;;;28.94;18.22;102041.44;4957670;28;20238;-71
2023/06/15 10:36:50;;;;;;;4.60;1.33;;;;;;;28.62;18.13;102034.78;4942727;28;20472;-73
2023/06/15 10:39:29;;;;;;;2.95;1.10;;;;;;;28.29;18.71;102047.84;4961993;28;20076;-72
2023/06/15 10:41:58;;;;;;;1.52;0.80;;;;;;;27.17;19.04;102044.25;4960578;28;20046;-73
2023/06/15 10:44:31;;;;;;;2.22;0.75;;;;;;;26.75;19.51;102057.91;4953964;28;20034;-73
2023/06/15 10:47:07;;;;;;;4.65;1.00;;;;;;;25.45;19.89;102061.16;4960426;28;20038;-72
2023/06/15 10:49:33;;;;;;;2.90;1.00;;;;;;;24.15;22.38;102075.38;4973824;28;20069;-71
2023/06/15 10:51:58;;;;;;;3.92;1.58;;;;;;;23.29;23.84;102075.81;4964800;28;20125;-71
2023/06/15 10:54:27;;;;;;;8.50;1.55;;;;;;;23.11;23.39;102073.53;4963532;28;20052;-73
2023/06/15 10:56:55;;;;;;;5.25;1.75;;;;;;;22.84;24.23;102076.44;4965473;28;20078;-73
2023/06/15 10:59:43;;;;;;;7.40;1.17;;;;;;;22.76;23.29;102078.81;4964958;28;20116;-72
2023/06/15 11:02:34;;;;;;;5.43;1.30;;;;;;;22.85;23.83;102072.84;4943113;28;20508;-71
2023/06/15 11:05:10;;;;;;;4.07;1.88;;;;;;;22.97;23.69;102076.41;4961184;28;20035;-72
2023/06/15 11:07:39;;;;;;;4.78;1.38;;;;;;;23.30;22.63;102075.72;4964748;28;20062;-72
2023/06/15 11:10:21;;;;;;;2.95;1.00;;;;;;;23.40;22.22;102066.03;4962558;28;20679;-72
2023/06/15 11:12:58;;;;;;;3.55;0.93;;;;;;;23.79;22.16;102076.44;4965135;28;20209;-71
2023/06/15 11:15:31;;;;;;;5.18;0.90;;;;;;;23.59;22.15;102077.97;4962592;28;20290;-72
2023/06/15 11:17:58;;;;;;;4.18;1.27;;;;;;;23.51;21.58;102075.03;4964896;28;20105;-72
2023/06/15 11:20:42;;;;;;;2.58;1.08;;;;;;;24.22;21.85;102073.91;4958970;28;20049;-72
2023/06/15 11:23:14;;;;;;;2.50;0.98;;;;;;;24.44;20.91;102070.41;4964354;28;20649;-72
2023/06/15 11:25:47;;;;;;;3.13;1.10;;;;;;;25.07;19.88;102077.78;4960668;28;20552;-72
2023/06/15 11:28:17;;;;;;;2.70;0.60;;;;;;;25.24;20.47;102073.69;4962811;28;20135;-71